Time;durP1;ratioP1;P1;durP2;ratioP2;P2;SDS_P1;SDS_P2;PMS_P1;PMS_P2;Temp;Humidity;BMP_temperature;BMP_pressure;BME280_temperature;BME280_humidity;BME280_pressure;Samples;Min_cycle;Max_cycle;Signal;HPM_P1;HPM_P2
2021/03/04 00:00:35;;;;;;;23.25;12.77;;;;;;;6.90;58.80;97176.06;5073025;28;20033;-77
2021/03/04 00:03:03;;;;;;;22.08;12.30;;;;;;;6.90;58.86;97173.47;5072842;28;20032;-76
2021/03/04 00:05:29;;;;;;;21.60;12.30;;;;;;;6.90;58.74;97165.63;5072842;28;20055;-77
2021/03/04 00:07:56;;;;;;;23.98;12.93;;;;;;;6.92;58.74;97168.06;5073049;28;20041;-76
2021/03/04 00:10:26;;;;;;;26.90;13.25;;;;;;;6.90;58.35;97155.22;5074889;28;20076;-76
2021/03/04 00:12:53;;;;;;;22.23;12.88;;;;;;;6.90;58.74;97159.63;5076733;28;20409;-76
2021/03/04 00:15:22;;;;;;;22.55;11.95;;;;;;;6.89;58.58;97148.38;5077270;28;20442;-76
2021/03/04 00:17:50;;;;;;;21.85;12.63;;;;;;;6.87;58.60;97139.13;5076969;28;20041;-76
2021/03/04 00:20:22;;;;;;;25.60;12.98;;;;;;;6.86;58.64;97135.69;5076898;28;20040;-77
2021/03/04 00:22:48;;;;;;;23.20;13.52;;;;;;;6.84;58.62;97137.66;5076778;28;20047;-76
2021/03/04 00:25:15;;;;;;;20.55;12.75;;;;;;;6.83;58.76;97135.25;5076782;28;20033;-76
2021/03/04 00:27:42;;;;;;;25.17;13.80;;;;;;;6.82;58.79;97142.25;5077184;28;20051;-77
2021/03/04 00:30:10;;;;;;;22.38;12.35;;;;;;;6.82;58.67;97138.84;5076627;28;20020;-77
2021/03/04 00:32:37;;;;;;;22.33;11.63;;;;;;;6.80;58.53;97136.41;5077103;28;20036;-76
2021/03/04 00:35:04;;;;;;;26.50;13.30;;;;;;;6.79;58.77;97144.41;5076349;28;20046;-77
2021/03/04 00:37:36;;;;;;;22.98;12.82;;;;;;;6.75;58.62;97140.53;5076461;28;20040;-77
2021/03/04 00:40:08;;;;;;;23.85;12.88;;;;;;;6.71;59.04;97148.69;5076204;28;20411;-77
2021/03/04 00:42:35;;;;;;;18.67;11.43;;;;;;;6.68;58.90;97143.84;5077163;28;20044;-77
2021/03/04 00:45:09;;;;;;;23.40;11.88;;;;;;;6.67;58.56;97142.22;5076186;28;20043;-76
2021/03/04 00:47:36;;;;;;;18.60;11.52;;;;;;;6.68;58.62;97143.84;5076456;28;20039;-76
2021/03/04 00:50:04;;;;;;;24.17;11.93;;;;;;;6.67;58.80;97141.41;5076357;28;20049;-77
2021/03/04 00:52:30;;;;;;;21.10;12.50;;;;;;;6.68;58.89;97143.84;5075986;28;20041;-77
2021/03/04 00:54:56;;;;;;;22.80;11.82;;;;;;;6.66;58.85;97131.97;5076160;28;20043;-77
2021/03/04 00:57:22;;;;;;;21.80;12.27;;;;;;;6.64;58.86;97132.16;5076223;28;20036;-76
2021/03/04 00:59:49;;;;;;;19.85;12.45;;;;;;;6.64;58.98;97120.91;5076534;28;20040;-76
2021/03/04 01:02:15;;;;;;;21.40;12.82;;;;;;;6.65;58.94;97125.13;5076091;28;20045;-76
2021/03/04 01:04:42;;;;;;;22.48;12.32;;;;;;;6.64;59.06;97121.72;5075993;28;20043;-76
2021/03/04 01:07:08;;;;;;;23.33;12.93;;;;;;;6.66;59.17;97118.94;5076137;28;20041;-77
2021/03/04 01:09:35;;;;;;;23.75;12.55;;;;;;;6.67;59.06;97125.78;5074466;28;20041;-76
2021/03/04 01:12:02;;;;;;;21.75;12.55;;;;;;;6.68;59.15;97122.19;5075766;28;20045;-76
2021/03/04 01:14:28;;;;;;;24.60;13.02;;;;;;;6.68;59.28;97117.78;5075681;28;20485;-76
2021/03/04 01:16:54;;;;;;;22.33;13.35;;;;;;;6.70;59.23;97115.00;5075649;28;20048;-77
2021/03/04 01:19:20;;;;;;;24.60;13.20;;;;;;;6.69;59.14;97115.97;5075832;28;20043;-76
2021/03/04 01:21:46;;;;;;;25.77;14.48;;;;;;;6.69;59.16;97113.38;5074109;28;20397;-76
2021/03/04 01:24:12;;;;;;;24.88;14.65;;;;;;;6.70;59.24;97104.59;5075699;28;20051;-77
2021/03/04 01:26:39;;;;;;;22.77;13.82;;;;;;;6.69;59.32;97097.72;5075549;28;20043;-76
2021/03/04 01:29:05;;;;;;;22.10;13.10;;;;;;;6.69;59.36;97101.13;5075559;28;20052;-76
2021/03/04 01:31:31;;;;;;;28.17;15.02;;;;;;;6.68;59.56;97101.34;5075281;28;20036;-77
2021/03/04 01:33:57;;;;;;;22.60;14.10;;;;;;;6.67;59.38;97104.91;5074931;28;20071;-77
2021/03/04 01:36:24;;;;;;;26.35;14.60;;;;;;;6.67;59.50;97107.53;5075687;28;20039;-76
2021/03/04 01:38:51;;;;;;;26.23;16.25;;;;;;;6.66;59.53;97091.09;5074883;28;20396;-76
2021/03/04 01:41:17;;;;;;;23.85;15.15;;;;;;;6.66;59.56;97079.84;5074733;28;20461;-76
2021/03/04 01:43:43;;;;;;;27.05;15.10;;;;;;;6.65;59.66;97078.22;5075770;28;20041;-76
2021/03/04 01:46:10;;;;;;;26.35;15.35;;;;;;;6.62;59.66;97068.16;5074978;28;20043;-76
2021/03/04 01:48:36;;;;;;;25.45;14.50;;;;;;;6.62;59.68;97063.75;5074920;28;20032;-77
2021/03/04 01:51:03;;;;;;;24.88;15.38;;;;;;;6.63;59.91;97064.56;5075719;28;20111;-76
2021/03/04 01:53:29;;;;;;;27.48;16.33;;;;;;;6.62;60.00;97061.16;5075018;28;20044;-76
2021/03/04 01:55:57;;;;;;;28.38;16.00;;;;;;;6.63;59.91;97064.56;5075291;28;20064;-76
2021/03/04 01:58:24;;;;;;;24.48;15.88;;;;;;;6.63;59.90;97062.75;5074866;28;20480;-77
2021/03/04 02:00:50;;;;;;;29.45;16.27;;;;;;;6.62;59.96;97053.31;5075012;28;20037;-76
2021/03/04 02:03:17;;;;;;;30.73;16.55;;;;;;;6.60;60.00;97050.09;5074923;28;20041;-76
2021/03/04 02:05:44;;;;;;;27.48;16.23;;;;;;;6.57;60.21;97037.41;5074634;28;20040;-76
2021/03/04 02:08:24;;;;;;;26.75;15.27;;;;;;;6.57;60.52;97044.41;5075218;28;20434;-77
2021/03/04 02:11:02;;;;;;;31.08;16.08;;;;;;;6.55;60.27;97043.78;5073875;28;20515;-77
2021/03/04 02:13:41;;;;;;;28.27;16.70;;;;;;;6.54;61.00;97044.78;5074671;28;20481;-76
2021/03/04 02:16:16;;;;;;;27.17;16.42;;;;;;;6.53;61.18;97045.75;5074732;28;20036;-77
2021/03/04 02:18:52;;;;;;;29.67;16.42;;;;;;;6.51;61.46;97043.34;5075118;28;20392;-77
2021/03/04 02:21:40;;;;;;;31.67;16.13;;;;;;;6.51;60.68;97045.94;5061126;28;20408;-76
2021/03/04 02:24:31;;;;;;;28.92;16.23;;;;;;;6.50;61.27;97042.50;5074345;28;20044;-77
2021/03/04 02:27:17;;;;;;;30.75;16.30;;;;;;;6.54;61.27;97044.78;5074590;28;20055;-76
2021/03/04 02:29:48;;;;;;;31.77;16.70;;;;;;;6.53;60.88;97035.34;5074427;28;20048;-76
2021/03/04 02:32:21;;;;;;;27.45;15.85;;;;;;;6.51;61.10;97038.13;5073960;28;20040;-77
2021/03/04 02:34:49;;;;;;;28.13;16.20;;;;;;;6.48;60.90;97039.28;5074216;28;20036;-76
2021/03/04 02:37:19;;;;;;;28.05;15.48;;;;;;;6.47;61.17;97039.47;5074609;28;20366;-77
2021/03/04 02:39:48;;;;;;;27.15;15.95;;;;;;;6.46;61.18;97030.03;5074192;28;20404;-77
2021/03/04 02:42:20;;;;;;;27.02;16.13;;;;;;;6.45;61.28;97038.84;5074068;28;20047;-77
2021/03/04 02:44:56;;;;;;;26.52;15.90;;;;;;;6.44;61.66;97030.19;5073871;28;20040;-76
2021/03/04 02:47:23;;;;;;;24.30;15.32;;;;;;;6.43;61.26;97025.97;5074027;28;20035;-76
2021/03/04 02:49:49;;;;;;;27.48;15.40;;;;;;;6.42;61.31;97026.16;5073641;28;20044;-76
2021/03/04 02:52:18;;;;;;;33.30;16.50;;;;;;;6.40;61.30;97028.94;5073831;28;20457;-76
2021/03/04 02:54:46;;;;;;;24.67;15.90;;;;;;;6.39;61.32;97018.72;5073817;28;20059;-76
2021/03/04 02:57:13;;;;;;;28.27;15.45;;;;;;;6.38;61.48;97023.09;5073768;28;20040;-76
2021/03/04 02:59:41;;;;;;;27.55;16.00;;;;;;;6.40;61.58;97033.34;5074059;28;20064;-76
2021/03/04 03:02:09;;;;;;;27.20;15.70;;;;;;;6.39;61.60;97022.13;5073674;28;20400;-76
2021/03/04 03:04:38;;;;;;;31.00;17.35;;;;;;;6.40;61.59;97017.69;5072447;28;20045;-76
2021/03/04 03:07:07;;;;;;;31.20;17.75;;;;;;;6.43;61.76;97019.97;5074040;28;20045;-77
2021/03/04 03:09:34;;;;;;;27.75;16.65;;;;;;;6.43;61.79;97019.97;5073725;28;20040;-77
2021/03/04 03:12:01;;;;;;;27.67;16.75;;;;;;;6.44;61.63;97021.56;5073613;28;20500;-76
2021/03/04 03:14:29;;;;;;;29.58;17.05;;;;;;;6.43;61.66;97015.56;5073814;28;20051;-77
2021/03/04 03:16:58;;;;;;;29.55;16.33;;;;;;;6.45;61.60;97012.78;5073313;28;20037;-76
2021/03/04 03:19:25;;;;;;;31.38;16.27;;;;;;;6.44;61.56;97009.34;5073670;28;20032;-76
2021/03/04 03:21:51;;;;;;;34.65;17.08;;;;;;;6.44;61.52;97008.53;5073516;28;20041;-76
2021/03/04 03:24:18;;;;;;;31.02;16.60;;;;;;;6.45;61.60;97013.59;5072900;28;20052;-77
2021/03/04 03:26:45;;;;;;;31.77;15.98;;;;;;;6.46;61.56;97004.78;5073364;28;20033;-77
2021/03/04 03:29:12;;;;;;;29.70;16.33;;;;;;;6.46;61.55;97007.38;5073617;28;20037;-76
2021/03/04 03:31:40;;;;;;;27.88;16.73;;;;;;;6.45;61.56;97004.97;5073682;28;20052;-76
2021/03/04 03:34:08;;;;;;;27.67;16.10;;;;;;;6.44;61.61;97013.75;5073302;28;20047;-76
2021/03/04 03:36:36;;;;;;;25.45;15.38;;;;;;;6.40;61.59;97004.69;5073676;28;20032;-77
2021/03/04 03:39:06;;;;;;;28.25;16.10;;;;;;;6.38;61.86;96999.63;5073394;28;20037;-76
2021/03/04 03:41:39;;;;;;;27.77;17.05;;;;;;;6.37;61.67;97003.25;5073234;28;20476;-76
2021/03/04 03:44:10;;;;;;;32.28;16.73;;;;;;;6.36;62.22;96998.19;5073003;28;20464;-76
2021/03/04 03:46:38;;;;;;;26.48;16.77;;;;;;;6.34;61.82;96994.97;5073569;28;20040;-77
2021/03/04 03:49:10;;;;;;;27.17;16.67;;;;;;;6.35;62.00;96994.00;5072182;28;20423;-77
2021/03/04 03:51:37;;;;;;;28.60;15.63;;;;;;;6.34;61.83;96998.41;5072380;28;20048;-77
2021/03/04 03:54:05;;;;;;;28.70;16.73;;;;;;;6.33;61.94;96995.97;5072952;28;20036;-76
2021/03/04 03:56:34;;;;;;;32.78;16.83;;;;;;;6.32;62.13;96984.75;5073510;28;20033;-77
2021/03/04 03:59:01;;;;;;;28.15;15.73;;;;;;;6.28;62.02;96986.88;5072992;28;20024;-77
2021/03/04 04:01:29;;;;;;;26.38;16.77;;;;;;;6.26;61.80;96988.84;5073167;28;20040;-76
2021/03/04 04:03:58;;;;;;;29.00;16.45;;;;;;;6.26;62.04;96982.84;5072790;28;20043;-77
2021/03/04 04:06:26;;;;;;;29.95;16.05;;;;;;;6.26;61.96;96988.06;5073182;28;20040;-76
2021/03/04 04:08:54;;;;;;;29.35;16.27;;;;;;;6.28;61.90;96980.88;5072012;28;20042;-76
2021/03/04 04:11:21;;;;;;;27.67;16.15;;;;;;;6.29;62.07;96985.09;5073264;28;20053;-76
2021/03/04 04:13:49;;;;;;;30.08;16.55;;;;;;;6.30;61.97;96986.72;5072787;28;20044;-76
2021/03/04 04:16:16;;;;;;;35.08;17.23;;;;;;;6.28;62.16;96983.47;5073150;28;20041;-76
2021/03/04 04:18:44;;;;;;;27.17;15.90;;;;;;;6.26;62.13;96972.44;5072483;28;20040;-77
2021/03/04 04:21:12;;;;;;;27.92;16.67;;;;;;;6.25;62.06;96976.81;5072745;28;20033;-76
2021/03/04 04:23:40;;;;;;;26.88;17.05;;;;;;;6.24;62.30;96972.59;5073176;28;20460;-76
2021/03/04 04:26:07;;;;;;;29.08;16.45;;;;;;;6.22;62.29;96977.16;5063435;28;20031;-76
2021/03/04 04:28:33;;;;;;;26.45;16.08;;;;;;;6.22;62.33;96974.56;5073043;28;20393;-76
2021/03/04 04:31:00;;;;;;;27.83;16.38;;;;;;;6.23;62.42;96973.56;5072740;28;20408;-76
2021/03/04 04:33:26;;;;;;;30.35;15.82;;;;;;;6.23;62.27;96976.16;5073032;28;20028;-76
2021/03/04 04:35:52;;;;;;;25.92;14.98;;;;;;;6.23;62.45;96973.56;5072994;28;20028;-77
2021/03/04 04:38:18;;;;;;;27.08;16.67;;;;;;;6.24;62.41;96969.19;5072591;28;20040;-77
2021/03/04 04:40:45;;;;;;;24.58;15.10;;;;;;;6.24;62.30;96964.78;5072607;28;20036;-76
2021/03/04 04:43:11;;;;;;;26.60;15.07;;;;;;;6.23;62.37;96968.34;5072793;28;20048;-76
2021/03/04 04:45:38;;;;;;;35.03;17.23;;;;;;;6.23;62.50;96963.16;5071239;28;20044;-76
2021/03/04 04:48:04;;;;;;;30.40;16.67;;;;;;;6.23;62.44;96962.34;5072261;28;20044;-76
2021/03/04 04:50:30;;;;;;;30.73;16.67;;;;;;;6.23;62.38;96965.75;5072616;28;20465;-76
2021/03/04 04:52:56;;;;;;;29.30;16.48;;;;;;;6.22;62.15;96958.13;5072658;28;20044;-76
2021/03/04 04:55:23;;;;;;;25.20;16.23;;;;;;;6.21;62.33;96954.69;5072341;28;20535;-76
2021/03/04 04:57:49;;;;;;;28.15;15.00;;;;;;;6.19;62.15;96953.28;5076186;28;20453;-76
2021/03/04 05:00:17;;;;;;;31.00;16.30;;;;;;;6.18;62.37;96951.66;5075989;28;20032;-76
2021/03/04 05:02:43;;;;;;;27.15;15.48;;;;;;;6.14;62.39;96945.19;5075902;28;20495;-77
2021/03/04 05:05:10;;;;;;;27.90;15.93;;;;;;;6.12;62.55;96945.34;5076394;28;20040;-77
2021/03/04 05:07:36;;;;;;;32.00;16.45;;;;;;;6.11;62.32;96941.16;5076131;28;20473;-77
2021/03/04 05:10:04;;;;;;;27.27;16.20;;;;;;;6.12;62.69;96939.34;5075865;28;20053;-76
2021/03/04 05:12:31;;;;;;;28.05;16.17;;;;;;;6.12;62.58;96934.16;5076017;28;20485;-77
2021/03/04 05:14:57;;;;;;;30.00;15.80;;;;;;;6.10;62.56;96942.13;5075629;28;20047;-76
2021/03/04 05:17:23;;;;;;;27.70;15.68;;;;;;;6.10;62.62;96936.91;5076187;28;20500;-76
2021/03/04 05:19:49;;;;;;;27.45;16.48;;;;;;;6.08;62.57;96944.09;5075539;28;20053;-77
2021/03/04 05:22:16;;;;;;;29.38;16.60;;;;;;;6.04;62.54;96940.22;5075794;28;20037;-77
2021/03/04 05:24:42;;;;;;;28.05;16.95;;;;;;;6.00;62.52;96926.75;5075777;28;20051;-76
2021/03/04 05:27:08;;;;;;;32.13;16.95;;;;;;;5.98;62.53;96930.50;5075433;28;20037;-77
2021/03/04 05:29:35;;;;;;;27.30;16.30;;;;;;;5.96;62.57;96927.28;5075637;28;20037;-76
2021/03/04 05:32:01;;;;;;;27.00;15.65;;;;;;;5.95;62.66;96915.25;5075731;28;20029;-76
2021/03/04 05:34:28;;;;;;;27.15;15.77;;;;;;;5.92;62.62;96918.97;5075154;28;20487;-77
2021/03/04 05:36:54;;;;;;;27.38;16.30;;;;;;;5.91;62.54;96919.97;5075453;28;20067;-76
2021/03/04 05:39:20;;;;;;;25.25;15.75;;;;;;;5.88;62.71;96913.34;5075299;28;20040;-77
2021/03/04 05:41:47;;;;;;;24.98;15.57;;;;;;;5.88;62.75;96915.94;5075460;28;20037;-77
2021/03/04 05:44:14;;;;;;;27.52;15.57;;;;;;;5.87;62.71;96906.50;5075189;28;20039;-77
2021/03/04 05:46:41;;;;;;;23.27;14.32;;;;;;;5.88;62.85;96910.72;5075963;28;20396;-76
2021/03/04 05:49:10;;;;;;;28.00;16.30;;;;;;;5.86;62.87;96902.28;5075270;28;20400;-76
2021/03/04 05:51:38;;;;;;;32.85;16.33;;;;;;;5.86;62.83;96902.28;5075521;28;20396;-77
2021/03/04 05:54:06;;;;;;;25.17;15.27;;;;;;;5.85;62.76;96898.06;5075120;28;20443;-76
2021/03/04 05:56:36;;;;;;;26.25;15.75;;;;;;;5.84;62.75;96898.25;5075025;28;20048;-76
2021/03/04 05:59:04;;;;;;;27.65;14.93;;;;;;;5.82;62.69;96892.41;5074699;28;20044;-77
2021/03/04 06:01:30;;;;;;;24.80;14.48;;;;;;;5.82;62.93;96897.63;5075752;28;20036;-76
2021/03/04 06:03:58;;;;;;;26.25;15.07;;;;;;;5.81;62.87;96891.56;5074998;28;20044;-76
2021/03/04 06:06:25;;;;;;;24.27;15.00;;;;;;;5.80;62.98;96895.19;5074901;28;20036;-76
2021/03/04 06:08:51;;;;;;;27.63;15.75;;;;;;;5.76;62.80;96891.31;5073574;28;20051;-76
2021/03/04 06:11:17;;;;;;;25.88;15.02;;;;;;;5.74;62.75;96885.47;5074419;28;20059;-76
2021/03/04 06:13:44;;;;;;;28.63;15.13;;;;;;;5.73;62.73;96893.44;5061525;28;20040;-76
2021/03/04 06:16:11;;;;;;;25.40;14.90;;;;;;;5.70;62.77;96885.00;5075334;28;20043;-76
2021/03/04 06:18:44;;;;;;;24.67;14.10;;;;;;;5.69;62.78;96893.81;5074151;28;20461;-76
2021/03/04 06:21:24;;;;;;;25.07;14.27;;;;;;;5.70;63.13;96892.00;5074596;28;20040;-76
2021/03/04 06:23:51;;;;;;;23.35;13.98;;;;;;;5.71;62.98;96891.00;5074520;28;20040;-77
2021/03/04 06:26:36;;;;;;;24.20;13.60;;;;;;;5.68;63.11;96889.56;5073559;28;20025;-78
2021/03/04 06:29:34;;;;;;;26.33;14.13;;;;;;;5.67;63.23;96885.38;5074560;28;20047;-77
2021/03/04 06:32:05;;;;;;;28.42;14.65;;;;;;;5.65;62.96;96892.53;5051425;28;20040;-76
2021/03/04 06:34:32;;;;;;;24.25;14.30;;;;;;;5.65;62.82;96889.94;5074269;28;20047;-77
2021/03/04 06:37:01;;;;;;;25.33;14.30;;;;;;;5.65;62.98;96889.16;5074087;28;20476;-76
2021/03/04 06:39:42;;;;;;;23.83;14.75;;;;;;;5.65;63.37;96886.53;5074422;28;20405;-76
2021/03/04 06:42:09;;;;;;;23.55;14.80;;;;;;;5.67;63.01;96887.97;5074215;28;20043;-76
2021/03/04 06:44:48;;;;;;;27.88;15.27;;;;;;;5.69;63.18;96888.59;5074053;28;20040;-76
2021/03/04 06:47:28;;;;;;;25.38;14.90;;;;;;;5.74;63.64;96888.06;5066271;28;20036;-77
2021/03/04 06:49:55;;;;;;;30.55;15.98;;;;;;;5.82;63.06;96887.22;5073910;28;20032;-77
2021/03/04 06:52:27;;;;;;;27.58;15.52;;;;;;;5.89;63.11;96888.09;5073472;28;20059;-77
2021/03/04 06:55:05;;;;;;;29.13;15.93;;;;;;;5.98;63.00;96894.88;5073897;28;20040;-76
2021/03/04 06:57:31;;;;;;;27.40;15.52;;;;;;;6.12;63.12;96892.47;5073300;28;20397;-76
2021/03/04 06:59:57;;;;;;;30.48;16.77;;;;;;;6.26;63.08;96887.28;5073883;28;20040;-77
2021/03/04 07:02:28;;;;;;;30.60;16.52;;;;;;;6.46;62.93;96892.75;5074185;28;20040;-77
2021/03/04 07:05:03;;;;;;;29.63;16.17;;;;;;;6.64;62.78;96894.97;5073962;28;20512;-77
2021/03/04 07:07:30;;;;;;;25.83;15.90;;;;;;;6.84;62.39;96887.38;5073588;28;20044;-77
2021/03/04 07:09:59;;;;;;;33.30;17.00;;;;;;;7.06;62.36;96883.03;5073470;28;20052;-77
2021/03/04 07:12:25;;;;;;;22.58;14.77;;;;;;;7.32;62.05;96886.91;5073610;28;20040;-77
2021/03/04 07:14:53;;;;;;;30.80;16.88;;;;;;;7.58;61.56;96881.13;5073027;28;20412;-77
2021/03/04 07:17:23;;;;;;;30.40;17.88;;;;;;;7.83;60.81;96873.69;5073694;28;20035;-77
2021/03/04 07:19:54;;;;;;;31.27;15.50;;;;;;;8.13;59.89;96871.69;5073235;28;20028;-77
2021/03/04 07:22:21;;;;;;;23.60;15.85;;;;;;;8.42;60.31;96876.88;5073464;28;20048;-76
2021/03/04 07:24:47;;;;;;;32.15;16.30;;;;;;;8.68;59.69;96874.41;5073439;28;20484;-76
2021/03/04 07:27:17;;;;;;;27.52;15.75;;;;;;;8.71;58.09;96863.56;5073958;28;20047;-76
2021/03/04 07:29:44;;;;;;;26.15;15.40;;;;;;;8.59;58.33;96869.53;5073290;28;20036;-77
2021/03/04 07:32:13;;;;;;;28.27;15.05;;;;;;;8.58;58.16;96868.72;5073367;28;20040;-77
2021/03/04 07:34:43;;;;;;;29.40;15.55;;;;;;;8.73;57.69;96858.13;5073160;28;20040;-77
2021/03/04 07:37:14;;;;;;;23.65;13.98;;;;;;;8.89;58.10;96855.16;5073328;28;20036;-77
2021/03/04 07:39:40;;;;;;;28.52;15.70;;;;;;;9.05;57.61;96850.56;5073471;28;20052;-77
2021/03/04 07:42:21;;;;;;;26.98;14.60;;;;;;;9.18;55.31;96834.09;5073261;28;20047;-76
2021/03/04 07:44:47;;;;;;;25.45;14.82;;;;;;;9.40;57.00;96845.19;5073112;28;20043;-77
2021/03/04 07:47:14;;;;;;;27.05;15.70;;;;;;;9.63;56.17;96834.31;5071929;28;20404;-77
2021/03/04 07:49:45;;;;;;;29.38;15.85;;;;;;;9.64;55.65;96833.31;5073424;28;20484;-77
2021/03/04 07:52:14;;;;;;;26.63;14.23;;;;;;;9.81;55.30;96831.09;5073249;28;20051;-77
2021/03/04 07:54:42;;;;;;;25.33;13.90;;;;;;;10.02;54.75;96820.38;5073040;28;20040;-77
2021/03/04 07:57:13;;;;;;;25.90;13.63;;;;;;;10.35;54.31;96820.31;5073108;28;20032;-77
2021/03/04 07:59:48;;;;;;;25.02;13.07;;;;;;;10.60;50.76;96777.66;5073146;28;20044;-77
2021/03/04 08:02:44;;;;;;;23.70;13.18;;;;;;;10.73;49.63;96755.78;5072952;28;20037;-77
2021/03/04 08:05:12;;;;;;;22.85;12.93;;;;;;;10.83;52.52;96778.94;5071438;28;20065;-76
2021/03/04 08:07:41;;;;;;;22.40;13.60;;;;;;;10.89;51.85;96773.66;5072960;28;20377;-76
2021/03/04 08:10:13;;;;;;;23.77;13.27;;;;;;;10.70;49.41;96764.09;5072525;28;20468;-77
2021/03/04 08:12:54;;;;;;;25.27;13.57;;;;;;;10.53;49.28;96753.28;5073353;28;20048;-77
2021/03/04 08:15:35;;;;;;;21.25;13.25;;;;;;;10.73;48.86;96738.25;5072830;28;20049;-77
2021/03/04 08:18:02;;;;;;;25.65;13.27;;;;;;;11.05;50.84;96751.34;5071679;28;20032;-77
2021/03/04 08:20:29;;;;;;;22.88;13.65;;;;;;;11.29;50.39;96744.50;5072689;28;20029;-77
2021/03/04 08:22:58;;;;;;;25.88;13.40;;;;;;;11.34;49.43;96741.25;5072832;28;20048;-77
2021/03/04 08:25:27;;;;;;;20.92;13.32;;;;;;;11.35;48.91;96734.97;5071693;28;20028;-77
2021/03/04 08:27:54;;;;;;;25.23;13.50;;;;;;;11.54;49.11;96730.56;5072768;28;20043;-77
2021/03/04 08:30:31;;;;;;;26.38;13.32;;;;;;;11.82;46.81;96708.22;5072424;28;20055;-77
2021/03/04 08:33:02;;;;;;;25.65;12.70;;;;;;;11.78;47.14;96711.31;5075664;28;20044;-76
2021/03/04 08:35:29;;;;;;;21.33;12.10;;;;;;;11.77;47.58;96712.31;5077114;28;20028;-76
2021/03/04 08:38:04;;;;;;;20.20;12.07;;;;;;;11.77;45.88;96695.75;5076523;28;20044;-77
2021/03/04 08:40:55;;;;;;;21.67;12.45;;;;;;;11.93;44.77;96682.06;5065830;28;20032;-77
2021/03/04 08:43:26;;;;;;;21.67;11.68;;;;;;;12.10;45.49;96692.78;5071008;28;20037;-77
2021/03/04 08:45:58;;;;;;;19.70;11.65;;;;;;;12.43;45.98;96701.25;5075456;28;20048;-78
2021/03/04 08:48:24;;;;;;;20.70;11.40;;;;;;;12.70;45.66;96691.16;5076833;28;20032;-76
2021/03/04 08:50:53;;;;;;;22.85;11.85;;;;;;;12.82;44.65;96692.00;5076672;28;20039;-77
2021/03/04 08:53:28;;;;;;;20.02;10.68;;;;;;;12.70;41.15;96759.59;5076334;28;20396;-76
2021/03/04 08:55:56;;;;;;;22.67;11.55;;;;;;;12.63;43.93;96770.19;5075994;28;20039;-77
2021/03/04 08:58:28;;;;;;;19.02;11.35;;;;;;;12.59;43.78;96763.78;5076478;28;20052;-77
2021/03/04 09:01:03;;;;;;;24.20;11.77;;;;;;;12.50;40.95;96757.22;5076233;28;20404;-77
2021/03/04 09:03:34;;;;;;;22.75;11.50;;;;;;;12.52;42.26;96760.44;5076052;28;20385;-76
2021/03/04 09:06:04;;;;;;;20.63;11.20;;;;;;;12.56;40.28;96749.25;5074772;28;20069;-77
2021/03/04 09:08:36;;;;;;;15.20;8.25;;;;;;;12.68;45.22;96772.97;5076425;28;20032;-75
2021/03/04 09:11:03;;;;;;;22.75;9.85;;;;;;;12.93;43.07;96748.31;5075938;28;20056;-75
2021/03/04 09:13:31;;;;;;;20.88;8.18;;;;;;;13.14;43.21;96765.44;5075899;28;20047;-75
2021/03/04 09:16:05;;;;;;;16.23;7.70;;;;;;;13.53;43.44;96750.84;5075887;28;20040;-75
2021/03/04 09:18:42;;;;;;;19.67;9.05;;;;;;;13.83;40.86;96747.28;5076056;28;20039;-75
2021/03/04 09:21:15;;;;;;;20.00;9.43;;;;;;;13.84;40.27;96748.91;5074565;28;20035;-76
2021/03/04 09:23:41;;;;;;;17.83;9.05;;;;;;;13.72;41.01;96753.38;5075472;28;20051;-76
2021/03/04 09:26:10;;;;;;;15.77;8.73;;;;;;;13.73;40.45;96754.97;5076110;28;20044;-76
2021/03/04 09:28:38;;;;;;;18.88;8.38;;;;;;;13.77;40.57;96758.75;5075762;28;20040;-76
2021/03/04 09:31:13;;;;;;;16.98;8.90;;;;;;;13.83;38.75;96735.94;5075642;28;20029;-76
2021/03/04 09:33:40;;;;;;;;;;;;;;;13.65;36.86;96721.88;5075872;28;20048;-77
2021/03/04 09:36:07;;;;;;;19.00;9.55;;;;;;;13.63;39.75;96744.19;5075481;28;19928;-77
2021/03/04 09:38:36;;;;;;;16.17;8.73;;;;;;;13.75;39.49;96739.72;5075164;28;20048;-77
2021/03/04 09:41:10;;;;;;;15.15;8.45;;;;;;;13.87;38.02;96735.25;5075471;28;20033;-77
2021/03/04 09:43:42;;;;;;;18.95;9.18;;;;;;;14.05;38.07;96722.94;5073955;28;20480;-77
2021/03/04 09:46:09;;;;;;;18.38;8.35;;;;;;;14.14;38.66;96716.28;5075537;28;20111;-77
2021/03/04 09:48:39;;;;;;;16.25;7.82;;;;;;;14.15;37.84;96709.97;5075680;28;20044;-77
2021/03/04 09:51:07;;;;;;;17.40;7.97;;;;;;;14.10;38.04;96709.88;5075209;28;20400;-76
2021/03/04 09:53:47;;;;;;;20.02;9.05;;;;;;;14.16;36.58;96699.19;5075283;28;20032;-76
2021/03/04 09:56:20;;;;;;;18.13;8.90;;;;;;;14.23;36.51;96708.81;5075062;28;20059;-76
2021/03/04 09:58:47;;;;;;;17.92;8.55;;;;;;;14.28;37.38;96709.72;5074831;28;20054;-77
2021/03/04 10:01:14;;;;;;;14.82;7.68;;;;;;;14.35;37.23;96702.44;5075192;28;20043;-77
2021/03/04 10:03:41;;;;;;;19.73;9.00;;;;;;;14.36;37.11;96700.59;5075333;28;20051;-76
2021/03/04 10:06:31;;;;;;;16.83;8.02;;;;;;;14.34;35.09;96692.94;5074975;28;20457;-77
2021/03/04 10:08:57;;;;;;;16.75;8.57;;;;;;;14.33;36.76;96701.88;5074699;28;20044;-76
2021/03/04 10:11:27;;;;;;;24.92;8.77;;;;;;;14.37;36.73;96710.13;5074939;28;20049;-76
2021/03/04 10:13:53;;;;;;;19.55;8.85;;;;;;;14.41;36.58;96706.00;5075096;28;20056;-76
2021/03/04 10:16:20;;;;;;;21.20;9.00;;;;;;;14.40;36.69;96705.19;5074830;28;20029;-76
2021/03/04 10:18:49;;;;;;;23.33;8.85;;;;;;;14.44;36.56;96697.59;5074776;28;20476;-76
2021/03/04 10:21:19;;;;;;;19.48;9.07;;;;;;;14.49;36.46;96699.53;5074543;28;20029;-76
2021/03/04 10:23:47;;;;;;;20.60;8.40;;;;;;;14.45;36.52;96701.84;5074719;28;20033;-76
2021/03/04 10:26:14;;;;;;;17.70;8.75;;;;;;;14.44;36.49;96692.31;5074622;28;20040;-77
2021/03/04 10:28:41;;;;;;;20.13;9.15;;;;;;;14.44;36.70;96696.81;5074650;28;20028;-76
2021/03/04 10:31:08;;;;;;;22.25;9.43;;;;;;;14.49;36.56;96696.88;5074600;28;20036;-76
2021/03/04 10:33:34;;;;;;;21.98;9.73;;;;;;;14.43;36.55;96693.38;5074197;28;20033;-76
2021/03/04 10:36:01;;;;;;;17.92;9.65;;;;;;;14.29;36.45;96698.13;5074039;28;20040;-76
2021/03/04 10:38:27;;;;;;;20.65;9.80;;;;;;;14.24;36.45;96691.94;5074232;28;20048;-77
2021/03/04 10:40:53;;;;;;;23.23;11.13;;;;;;;14.33;36.65;96693.97;5069921;28;20056;-77
2021/03/04 10:43:20;;;;;;;23.27;9.48;;;;;;;14.43;36.53;96693.38;5071695;28;20059;-77
2021/03/04 10:45:46;;;;;;;22.55;10.43;;;;;;;14.57;36.63;96694.72;5071056;28;20492;-77
2021/03/04 10:48:13;;;;;;;20.75;9.48;;;;;;;14.71;36.43;96686.50;5071498;28;20028;-77
2021/03/04 10:50:40;;;;;;;17.40;9.10;;;;;;;14.85;36.29;96681.72;5072042;28;20075;-77
2021/03/04 10:53:07;;;;;;;20.05;9.18;;;;;;;14.84;36.07;96686.19;5072870;28;20456;-77
2021/03/04 10:55:33;;;;;;;19.52;9.70;;;;;;;14.83;36.08;96687.22;5072790;28;20024;-77
2021/03/04 10:57:59;;;;;;;22.65;9.52;;;;;;;14.86;36.07;96686.75;5073432;28;20036;-77
2021/03/04 11:00:30;;;;;;;24.42;9.82;;;;;;;14.86;35.99;96676.19;5072870;28;20036;-77
2021/03/04 11:02:58;;;;;;;24.58;9.45;;;;;;;14.84;36.04;96674.81;5073101;28;20107;-78
2021/03/04 11:05:24;;;;;;;19.55;9.27;;;;;;;14.80;36.10;96672.69;5072877;28;20044;-78
2021/03/04 11:07:51;;;;;;;20.65;9.05;;;;;;;14.73;35.79;96676.50;5073025;28;20378;-78
2021/03/04 11:10:17;;;;;;;23.50;9.77;;;;;;;14.55;35.81;96673.03;5072701;28;20057;-79
2021/03/04 11:12:44;;;;;;;21.00;9.40;;;;;;;14.47;35.90;96672.56;5072670;28;20075;-78
2021/03/04 11:15:11;;;;;;;21.23;9.10;;;;;;;14.48;36.01;96668.91;5072741;28;20040;-78
2021/03/04 11:17:37;;;;;;;22.45;9.80;;;;;;;14.41;36.19;96661.94;5073262;28;20044;-78
2021/03/04 11:20:04;;;;;;;19.58;10.05;;;;;;;14.40;36.18;96665.63;5072622;28;20473;-78
2021/03/04 11:22:31;;;;;;;23.13;10.15;;;;;;;14.48;36.33;96658.34;5072823;28;20043;-78
2021/03/04 11:24:57;;;;;;;19.70;10.13;;;;;;;14.48;36.22;96658.34;5073136;28;20408;-78
2021/03/04 11:27:23;;;;;;;23.00;10.90;;;;;;;14.40;36.32;96655.06;5072997;28;20487;-78
2021/03/04 11:29:50;;;;;;;22.77;9.50;;;;;;;14.33;36.35;96646.47;5073038;28;20047;-78
2021/03/04 11:32:16;;;;;;;18.75;10.10;;;;;;;14.37;36.47;96649.47;5073181;28;20464;-77